Time;durP1;ratioP1;P1;durP2;ratioP2;P2;SDS_P1;SDS_P2;PMS_P1;PMS_P2;Temp;Humidity;BMP_temperature;BMP_pressure;BME280_temperature;BME280_humidity;BME280_pressure;Samples;Min_cycle;Max_cycle;Signal;HPM_P1;HPM_P2
2022/01/19 00:01:06;;;;;;;44.47;15.60;;;;;;;;;;5001273;28;20042;-86
2022/01/19 00:03:32;;;;;;;49.58;17.95;;;;;;;;;;5015948;28;20040;-86
2022/01/19 00:05:58;;;;;;;41.47;12.93;;;;;;;;;;5003324;28;20350;-86
2022/01/19 00:08:26;;;;;;;29.80;11.30;;;;;;;;;;4995608;28;20037;-86
2022/01/19 00:10:52;;;;;;;23.13;7.35;;;;;;;;;;5029566;28;20100;-86
2022/01/19 00:13:19;;;;;;;41.17;14.25;;;;;;;;;;5013777;28;20038;-85
2022/01/19 00:15:45;;;;;;;31.23;12.30;;;;;;;;;;4999333;28;20128;-86
2022/01/19 00:18:11;;;;;;;35.15;13.75;;;;;;;;;;4997852;28;20056;-86
2022/01/19 00:20:37;;;;;;;42.75;13.30;;;;;;;;;;5002709;28;20401;-86
2022/01/19 00:23:04;;;;;;;35.78;13.57;;;;;;;;;;4999151;28;20115;-86
2022/01/19 00:25:31;;;;;;;31.42;9.38;;;;;;;;;;4991651;28;20034;-86
2022/01/19 00:27:57;;;;;;;33.15;11.52;;;;;;;;;;5003361;28;20063;-86
2022/01/19 00:30:24;;;;;;;42.70;12.60;;;;;;;;;;4998220;28;20549;-86
2022/01/19 00:32:50;;;;;;;32.95;11.68;;;;;;;;;;5016329;28;20021;-86
2022/01/19 00:35:16;;;;;;;34.35;11.93;;;;;;;;;;4998585;28;20560;-86
2022/01/19 00:37:42;;;;;;;32.38;13.00;;;;;;;;;;4999634;28;20493;-85
2022/01/19 00:40:09;;;;;;;25.67;10.23;;;;;;;;;;4994844;28;20030;-86
2022/01/19 00:42:35;;;;;;;37.88;11.50;;;;;;;;;;5016009;28;20033;-86
2022/01/19 00:45:02;;;;;;;26.75;8.48;;;;;;;;;;4998014;28;20018;-86
2022/01/19 00:47:28;;;;;;;37.67;12.00;;;;;;;;;;5016755;28;20033;-86
2022/01/19 00:49:54;;;;;;;27.25;8.25;;;;;;;;;;5000388;28;20025;-85
2022/01/19 00:52:20;;;;;;;54.70;15.77;;;;;;;;;;5015106;28;20034;-86
2022/01/19 00:54:46;;;;;;;56.53;15.85;;;;;;;;;;5006310;28;20034;-86
2022/01/19 00:57:12;;;;;;;43.40;14.10;;;;;;;;;;5001327;28;20033;-86
2022/01/19 00:59:38;;;;;;;49.10;13.85;;;;;;;;;;4998451;28;20056;-86
2022/01/19 01:02:05;;;;;;;60.95;16.13;;;;;;;;;;4999131;28;20073;-86
2022/01/19 01:04:34;;;;;;;44.10;13.88;;;;;;;;;;5019177;28;20030;-86
2022/01/19 01:07:00;;;;;;;60.35;16.50;;;;;;;;;;5000852;28;20247;-86
2022/01/19 01:09:27;;;;;;;48.58;15.20;;;;;;;;;;5020587;28;20056;-86
2022/01/19 01:12:11;;;;;;;44.33;15.10;;;;;;;;;;4995955;28;20042;-86
2022/01/19 01:20:09;;;;;;;35.03;11.15;;;;;;;;;;5010554;28;20036;-86
2022/01/19 01:22:36;;;;;;;59.03;16.33;;;;;;;;;;5020769;28;20052;-86
2022/01/19 01:25:02;;;;;;;32.55;11.10;;;;;;;;;;5001934;28;20025;-86
2022/01/19 01:27:28;;;;;;;62.83;18.20;;;;;;;;;;5000425;28;20048;-86
2022/01/19 01:29:54;;;;;;;38.60;14.32;;;;;;;;;;4994984;28;20049;-86
2022/01/19 01:32:20;;;;;;;49.75;17.88;;;;;;;;;;5003796;28;20032;-86
2022/01/19 01:34:46;;;;;;;59.47;17.90;;;;;;;;;;5020316;28;20030;-86
2022/01/19 01:37:12;;;;;;;57.13;17.05;;;;;;;;;;4998339;28;20037;-86
2022/01/19 01:39:39;;;;;;;46.25;14.32;;;;;;;;;;5014320;28;20121;-86
2022/01/19 01:42:08;;;;;;;58.30;18.80;;;;;;;;;;5000160;28;20504;-86
2022/01/19 01:44:35;;;;;;;28.52;8.80;;;;;;;;;;5004198;28;20033;-86
2022/01/19 01:47:02;;;;;;;46.75;15.02;;;;;;;;;;4996894;28;20041;-86
2022/01/19 01:49:42;;;;;;;51.33;16.55;;;;;;;;;;4998934;28;20029;-86
2022/01/19 01:54:53;;;;;;;59.33;18.30;;;;;;;;;;5012730;28;20440;-86
2022/01/19 01:57:20;;;;;;;59.08;19.83;;;;;;;;;;5004423;28;20036;-86
2022/01/19 01:59:46;;;;;;;65.07;18.70;;;;;;;;;;5012601;28;20034;-86
2022/01/19 02:02:12;;;;;;;63.65;20.42;;;;;;;;;;5004350;28;20504;-86
2022/01/19 02:04:41;;;;;;;41.50;14.85;;;;;;;;;;5000118;28;20025;-85
2022/01/19 02:09:50;;;;;;;49.72;17.33;;;;;;;;;;5021377;28;20036;-86
2022/01/19 02:23:33;;;;;;;59.40;20.05;;;;;;;;;;5024306;28;20063;-86
2022/01/19 02:26:01;;;;;;;59.67;19.02;;;;;;;;;;5013769;28;20478;-86
2022/01/19 02:41:55;;;;;;;55.30;16.02;;;;;;;;;;5019320;28;20044;-86
2022/01/19 02:49:55;;;;;;;37.28;11.95;;;;;;;;;;5022129;28;20547;-86
2022/01/19 02:52:23;;;;;;;54.47;15.65;;;;;;;;;;4996051;28;20359;-86
2022/01/19 02:54:49;;;;;;;57.90;16.33;;;;;;;;;;5006739;28;20025;-86
2022/01/19 02:57:16;;;;;;;69.68;18.10;;;;;;;;;;5000010;28;20120;-86
2022/01/19 03:10:26;;;;;;;39.85;12.90;;;;;;;;;;5017136;28;20044;-85
2022/01/19 03:12:52;;;;;;;30.35;9.18;;;;;;;;;;4995709;28;20048;-86
2022/01/19 03:15:18;;;;;;;68.70;17.42;;;;;;;;;;4996917;28;20104;-86
2022/01/19 03:17:44;;;;;;;62.55;19.35;;;;;;;;;;5000451;28;20124;-85
2022/01/19 03:20:11;;;;;;;50.75;14.18;;;;;;;;;;4993527;28;20612;-86
2022/01/19 03:22:47;;;;;;;69.15;16.50;;;;;;;;;;5014393;28;20095;-86
2022/01/19 03:25:13;;;;;;;62.20;18.98;;;;;;;;;;5002810;28;20498;-86
2022/01/19 03:27:40;;;;;;;59.17;14.18;;;;;;;;;;5012052;28;20018;-86
2022/01/19 03:30:07;;;;;;;67.82;17.88;;;;;;;;;;5002234;28;20037;-85
2022/01/19 03:32:40;;;;;;;84.15;20.40;;;;;;;;;;5001339;28;20053;-86
2022/01/19 03:35:06;;;;;;;57.03;16.27;;;;;;;;;;5019937;28;20668;-86
2022/01/19 03:37:32;;;;;;;65.57;19.73;;;;;;;;;;4998142;28;20083;-86
2022/01/19 03:39:58;;;;;;;51.30;14.65;;;;;;;;;;5001188;28;20405;-85
2022/01/19 03:42:24;;;;;;;37.05;11.18;;;;;;;;;;4996008;28;20532;-86
2022/01/19 03:44:50;;;;;;;56.50;16.90;;;;;;;;;;4997371;28;20123;-86
2022/01/19 03:47:17;;;;;;;73.47;17.90;;;;;;;;;;5001807;28;20061;-86
2022/01/19 03:49:43;;;;;;;59.72;19.15;;;;;;;;;;4997776;28;20033;-86
2022/01/19 03:52:09;;;;;;;70.20;18.90;;;;;;;;;;5004940;28;20045;-86
2022/01/19 03:54:37;;;;;;;75.70;19.17;;;;;;;;;;4999380;28;20180;-86
2022/01/19 03:57:03;;;;;;;81.78;19.65;;;;;;;;;;5000164;28;20053;-86
2022/01/19 03:59:30;;;;;;;61.65;19.13;;;;;;;;;;5015050;28;20540;-86
2022/01/19 04:01:57;;;;;;;67.90;17.45;;;;;;;;;;4998616;28;20472;-86
2022/01/19 04:04:35;;;;;;;80.63;21.92;;;;;;;;;;4997081;28;20018;-86
2022/01/19 04:07:08;;;;;;;76.25;22.35;;;;;;;;;;5012494;28;20567;-85
2022/01/19 04:09:36;;;;;;;65.05;20.73;;;;;;;;;;4999139;28;20110;-86
2022/01/19 04:12:03;;;;;;;83.25;21.40;;;;;;;;;;4999561;28;20021;-86
2022/01/19 04:14:29;;;;;;;75.55;21.98;;;;;;;;;;5003324;28;20048;-86
2022/01/19 04:16:56;;;;;;;22.55;8.38;;;;;;;;;;4995729;28;20442;-85
2022/01/19 04:21:53;;;;;;;40.38;12.18;;;;;;;;;;5018078;28;20040;-85
2022/01/19 04:24:20;;;;;;;49.20;11.55;;;;;;;;;;5002583;28;20116;-85
2022/01/19 04:26:50;;;;;;;65.95;19.73;;;;;;;;;;4999203;28;20032;-86
2022/01/19 04:29:16;;;;;;;59.05;20.90;;;;;;;;;;4996445;28;20070;-86
2022/01/19 04:31:42;;;;;;;68.63;20.73;;;;;;;;;;4987763;28;20398;-86
2022/01/19 04:34:12;;;;;;;69.65;21.25;;;;;;;;;;4987626;28;20037;-85
2022/01/19 04:43:45;;;;;;;56.23;19.83;;;;;;;;;;5003161;28;20045;-86
2022/01/19 04:45:10;;;;;;;55.40;16.73;;;;;;;;;;5004325;28;20238;-86
2022/01/19 05:04:07;;;;;;;45.67;11.82;;;;;;;;;;5006309;28;20755;-86
2022/01/19 05:06:38;;;;;;;75.22;21.25;;;;;;;;;;4981754;28;20034;-85
2022/01/19 05:09:23;;;;;;;61.67;22.20;;;;;;;;;;5002424;28;20049;-86
2022/01/19 05:14:40;;;;;;;62.75;20.27;;;;;;;;;;5001891;28;20097;-85
2022/01/19 05:17:06;;;;;;;61.70;18.48;;;;;;;;;;5003103;28;20044;-86
2022/01/19 05:19:32;;;;;;;95.07;22.75;;;;;;;;;;4986359;28;20119;-86
2022/01/19 05:21:58;;;;;;;67.53;19.80;;;;;;;;;;4983410;28;20038;-85
2022/01/19 05:24:24;;;;;;;72.07;21.92;;;;;;;;;;4985238;28;20025;-85
2022/01/19 05:26:51;;;;;;;63.00;20.25;;;;;;;;;;4985559;28;20033;-86
2022/01/19 05:29:18;;;;;;;56.55;19.17;;;;;;;;;;4997052;28;20042;-86
2022/01/19 05:31:44;;;;;;;65.43;20.60;;;;;;;;;;4999829;28;20553;-85
2022/01/19 05:34:10;;;;;;;59.63;20.63;;;;;;;;;;5016838;28;20149;-85
2022/01/19 05:36:36;;;;;;;57.65;19.08;;;;;;;;;;5016379;28;20059;-86
2022/01/19 05:39:04;;;;;;;65.07;23.23;;;;;;;;;;5004221;28;20416;-86
2022/01/19 05:41:31;;;;;;;53.15;19.65;;;;;;;;;;5004525;28;20057;-86
2022/01/19 05:43:57;;;;;;;62.72;23.00;;;;;;;;;;5002414;28;20094;-85
2022/01/19 05:46:23;;;;;;;56.78;21.13;;;;;;;;;;5003902;28;20031;-86
2022/01/19 05:48:49;;;;;;;57.80;19.88;;;;;;;;;;5002782;28;20493;-86
2022/01/19 05:51:15;;;;;;;62.47;21.92;;;;;;;;;;5001915;28;20093;-85
2022/01/19 05:53:41;;;;;;;60.55;20.67;;;;;;;;;;4998926;28;20192;-86
2022/01/19 05:56:07;;;;;;;64.03;21.30;;;;;;;;;;5022899;28;20017;-86
2022/01/19 05:58:33;;;;;;;46.25;14.40;;;;;;;;;;4998405;28;20490;-85
2022/01/19 06:01:00;;;;;;;59.28;20.38;;;;;;;;;;5001207;28;20289;-85
2022/01/19 06:03:26;;;;;;;49.85;16.88;;;;;;;;;;4997686;28;20037;-85
2022/01/19 06:05:52;;;;;;;62.95;21.23;;;;;;;;;;5024590;28;20433;-85
2022/01/19 06:10:45;;;;;;;54.33;19.95;;;;;;;;;;5015950;28;20048;-86
2022/01/19 06:13:18;;;;;;;59.75;21.58;;;;;;;;;;5019326;28;20028;-86
2022/01/19 06:15:44;;;;;;;56.75;20.08;;;;;;;;;;4998661;28;20044;-86
2022/01/19 06:18:10;;;;;;;62.03;21.73;;;;;;;;;;4997072;28;20030;-86
2022/01/19 06:20:36;;;;;;;66.82;19.48;;;;;;;;;;5014177;28;20096;-86
2022/01/19 06:23:02;;;;;;;54.88;18.05;;;;;;;;;;5010262;28;20036;-85
2022/01/19 06:25:29;;;;;;;60.75;15.95;;;;;;;;;;5014517;28;20057;-85
2022/01/19 06:27:55;;;;;;;54.70;19.10;;;;;;;;;;5003590;28;20030;-85
2022/01/19 06:30:21;;;;;;;53.30;17.23;;;;;;;;;;4985561;28;21234;-86
2022/01/19 06:32:47;;;;;;;41.10;17.27;;;;;;;;;;4988302;28;20030;-86
2022/01/19 06:35:13;;;;;;;32.08;13.30;;;;;;;;;;4982669;28;20087;-86
2022/01/19 06:37:39;;;;;;;61.67;21.08;;;;;;;;;;4993222;28;20149;-85
2022/01/19 06:40:06;;;;;;;65.13;19.85;;;;;;;;;;4984137;28;20646;-85
2022/01/19 06:42:32;;;;;;;60.80;20.85;;;;;;;;;;4995227;28;20076;-86
2022/01/19 06:44:58;;;;;;;48.58;17.48;;;;;;;;;;4995004;28;20029;-86
2022/01/19 06:47:25;;;;;;;57.70;21.05;;;;;;;;;;4996057;28;20025;-86
2022/01/19 06:49:51;;;;;;;67.72;21.17;;;;;;;;;;4980466;28;20133;-85
2022/01/19 06:52:17;;;;;;;38.13;15.52;;;;;;;;;;4980270;28;21154;-85
2022/01/19 06:54:43;;;;;;;47.47;15.68;;;;;;;;;;4981517;28;20033;-85
2022/01/19 06:57:09;;;;;;;62.92;22.02;;;;;;;;;;4980457;28;20517;-86
2022/01/19 06:59:35;;;;;;;61.53;19.92;;;;;;;;;;4979088;28;20049;-86
2022/01/19 07:02:01;;;;;;;58.88;22.13;;;;;;;;;;4979165;28;20081;-86
2022/01/19 07:04:27;;;;;;;55.83;21.83;;;;;;;;;;4979265;28;20505;-87
2022/01/19 07:06:53;;;;;;;52.47;20.05;;;;;;;;;;4986071;28;20386;-86
2022/01/19 07:09:19;;;;;;;62.25;22.45;;;;;;;;;;4972233;28;20034;-86
2022/01/19 07:11:45;;;;;;;58.13;19.70;;;;;;;;;;4999379;28;20089;-86
2022/01/19 07:14:17;;;;;;;65.47;20.90;;;;;;;;;;4978450;28;20606;-86
2022/01/19 07:16:43;;;;;;;71.90;25.40;;;;;;;;;;4980396;28;20067;-86
2022/01/19 07:19:09;;;;;;;72.40;22.30;;;;;;;;;;4993305;28;20495;-86
2022/01/19 07:21:35;;;;;;;65.78;20.17;;;;;;;;;;4980644;28;20030;-86
2022/01/19 07:24:01;;;;;;;55.05;19.50;;;;;;;;;;4998133;28;20041;-86
2022/01/19 07:26:27;;;;;;;67.18;22.10;;;;;;;;;;4972356;28;20029;-86
2022/01/19 07:28:53;;;;;;;63.45;21.55;;;;;;;;;;4991205;28;20041;-86
2022/01/19 07:31:20;;;;;;;60.05;22.48;;;;;;;;;;5012398;28;20038;-86
2022/01/19 07:33:46;;;;;;;61.45;21.55;;;;;;;;;;5006157;28;20044;-86
2022/01/19 07:36:12;;;;;;;59.60;20.65;;;;;;;;;;5005379;28;20041;-86
2022/01/19 07:38:38;;;;;;;54.45;19.52;;;;;;;;;;4997792;28;20030;-86
2022/01/19 07:41:04;;;;;;;58.08;19.95;;;;;;;;;;4997636;28;20351;-85
2022/01/19 07:43:30;;;;;;;49.22;18.70;;;;;;;;;;5004889;28;20030;-85
2022/01/19 07:45:56;;;;;;;50.45;18.85;;;;;;;;;;4995234;28;20359;-85
2022/01/19 07:48:22;;;;;;;58.00;22.80;;;;;;;;;;4998134;28;20034;-85
2022/01/19 07:50:48;;;;;;;52.63;16.27;;;;;;;;;;5001220;28;20038;-85
2022/01/19 07:53:14;;;;;;;56.55;22.00;;;;;;;;;;5001345;28;20033;-86
2022/01/19 07:55:49;;;;;;;46.00;18.35;;;;;;;;;;5002952;28;20033;-88
2022/01/19 07:58:15;;;;;;;57.20;21.83;;;;;;;;;;5004190;28;20054;-85
2022/01/19 08:00:42;;;;;;;67.80;22.40;;;;;;;;;;4999840;28;20045;-85
2022/01/19 08:03:08;;;;;;;61.80;18.52;;;;;;;;;;4996902;28;20025;-85
2022/01/19 08:05:34;;;;;;;69.72;22.23;;;;;;;;;;5009841;28;20037;-86
2022/01/19 08:08:02;;;;;;;52.58;17.20;;;;;;;;;;5003173;28;20375;-85
2022/01/19 08:10:29;;;;;;;55.00;21.38;;;;;;;;;;5002710;28;20497;-86
2022/01/19 08:12:55;;;;;;;46.42;16.55;;;;;;;;;;5014536;28;20021;-85
2022/01/19 08:15:21;;;;;;;55.78;19.55;;;;;;;;;;5016132;28;20108;-86
2022/01/19 08:17:47;;;;;;;57.47;20.73;;;;;;;;;;5006858;28;20052;-86
2022/01/19 08:20:14;;;;;;;64.45;20.25;;;;;;;;;;5004068;28;20037;-85
2022/01/19 08:22:40;;;;;;;63.90;18.75;;;;;;;;;;4998598;28;20030;-86
2022/01/19 08:25:06;;;;;;;58.75;19.17;;;;;;;;;;4999395;28;20037;-86
2022/01/19 08:27:32;;;;;;;68.18;23.17;;;;;;;;;;5021084;28;20537;-86
2022/01/19 08:30:04;;;;;;;56.03;21.15;;;;;;;;;;5000758;28;20514;-85
2022/01/19 08:32:37;;;;;;;66.95;22.67;;;;;;;;;;5020814;28;20104;-86
2022/01/19 08:35:04;;;;;;;73.68;21.25;;;;;;;;;;5019614;28;20065;-85
2022/01/19 08:37:30;;;;;;;67.95;23.20;;;;;;;;;;5004022;28;20231;-86
2022/01/19 08:39:56;;;;;;;67.00;23.40;;;;;;;;;;5006925;28;20133;-85
2022/01/19 08:42:22;;;;;;;66.35;23.67;;;;;;;;;;4999901;28;20034;-86
2022/01/19 08:44:48;;;;;;;65.18;22.92;;;;;;;;;;5005418;28;20075;-85
2022/01/19 08:47:15;;;;;;;57.97;21.05;;;;;;;;;;4998200;28;20490;-85
2022/01/19 08:49:41;;;;;;;64.63;22.50;;;;;;;;;;5004524;28;20470;-85
2022/01/19 08:52:07;;;;;;;42.47;17.30;;;;;;;;;;5001774;28;20042;-85
2022/01/19 08:54:34;;;;;;;67.13;23.33;;;;;;;;;;5004560;28;20448;-85
2022/01/19 08:57:01;;;;;;;65.68;23.42;;;;;;;;;;4993379;28;20030;-85
2022/01/19 08:59:28;;;;;;;53.47;18.98;;;;;;;;;;4998212;28;20132;-85
2022/01/19 09:01:54;;;;;;;70.65;22.73;;;;;;;;;;4999434;28;20053;-85
2022/01/19 09:04:20;;;;;;;69.35;22.70;;;;;;;;;;5015304;28;20542;-85
2022/01/19 09:06:46;;;;;;;62.13;22.85;;;;;;;;;;4997021;28;20595;-85
2022/01/19 09:09:12;;;;;;;57.70;21.92;;;;;;;;;;5001304;28;20037;-86
2022/01/19 09:11:38;;;;;;;67.03;24.08;;;;;;;;;;5004112;28;20048;-86
2022/01/19 09:14:06;;;;;;;68.18;22.95;;;;;;;;;;4999962;28;20040;-86
2022/01/19 09:16:33;;;;;;;64.05;21.38;;;;;;;;;;5008976;28;20037;-85
2022/01/19 09:18:59;;;;;;;51.83;19.65;;;;;;;;;;5020941;28;20029;-86
2022/01/19 09:21:25;;;;;;;69.63;25.10;;;;;;;;;;5000398;28;20116;-86
2022/01/19 09:23:51;;;;;;;41.85;14.75;;;;;;;;;;5019038;28;20508;-85
2022/01/19 09:26:17;;;;;;;55.00;20.30;;;;;;;;;;5002162;28;20128;-85
2022/01/19 09:28:43;;;;;;;64.70;20.83;;;;;;;;;;5009592;28;20049;-85
2022/01/19 09:31:11;;;;;;;59.47;20.90;;;;;;;;;;5000209;28;20398;-85
2022/01/19 09:33:37;;;;;;;61.00;20.92;;;;;;;;;;5019134;28;20486;-85
2022/01/19 09:38:36;;;;;;;59.80;19.17;;;;;;;;;;5022151;28;20030;-85
2022/01/19 09:41:03;;;;;;;53.20;18.50;;;;;;;;;;5005642;28;20041;-85
2022/01/19 09:43:29;;;;;;;62.45;17.73;;;;;;;;;;5000524;28;20381;-86
2022/01/19 09:45:56;;;;;;;68.55;22.92;;;;;;;;;;5001105;28;20025;-85
2022/01/19 09:48:23;;;;;;;58.55;21.10;;;;;;;;;;5000295;28;20164;-86
2022/01/19 09:50:49;;;;;;;56.25;20.10;;;;;;;;;;5003881;28;20524;-85
2022/01/19 09:53:15;;;;;;;43.55;17.10;;;;;;;;;;4998875;28;20133;-86
2022/01/19 09:55:42;;;;;;;45.17;16.23;;;;;;;;;;5000502;28;20049;-86
2022/01/19 09:58:09;;;;;;;57.97;19.90;;;;;;;;;;5001806;28;20505;-86
2022/01/19 10:00:36;;;;;;;52.83;19.83;;;;;;;;;;5002500;28;20044;-86
2022/01/19 10:03:12;;;;;;;64.32;23.88;;;;;;;;;;5001469;28;20059;-86
2022/01/19 10:05:53;;;;;;;27.23;10.20;;;;;;;;;;4999722;28;20223;-85
2022/01/19 10:08:29;;;;;;;67.57;19.25;;;;;;;;;;4995719;28;20515;-85
2022/01/19 10:11:15;;;;;;;49.00;19.40;;;;;;;;;;5003198;28;20045;-86
2022/01/19 10:16:59;;;;;;;49.97;19.92;;;;;;;;;;5010619;28;20045;-86
2022/01/19 10:19:28;;;;;;;69.05;22.13;;;;;;;;;;5001267;28;20047;-86
2022/01/19 10:21:58;;;;;;;70.60;25.95;;;;;;;;;;5018732;28;20057;-86
2022/01/19 10:24:52;;;;;;;69.03;23.40;;;;;;;;;;4998208;28;20030;-86
2022/01/19 10:27:27;;;;;;;72.05;27.17;;;;;;;;;;4997967;28;20106;-85
2022/01/19 10:29:57;;;;;;;63.80;22.63;;;;;;;;;;4988056;28;20316;-86
2022/01/19 10:32:25;;;;;;;47.70;18.17;;;;;;;;;;5003006;28;20062;-85
2022/01/19 10:34:51;;;;;;;69.25;25.27;;;;;;;;;;5000029;28;20117;-85
2022/01/19 10:37:24;;;;;;;50.63;18.73;;;;;;;;;;4996946;28;20076;-85
2022/01/19 10:39:51;;;;;;;65.40;24.60;;;;;;;;;;5009747;28;20033;-86
2022/01/19 10:42:36;;;;;;;37.80;15.70;;;;;;;;;;5014131;28;20041;-86
2022/01/19 10:45:06;;;;;;;69.72;25.52;;;;;;;;;;4999968;28;20076;-86
2022/01/19 10:47:38;;;;;;;73.63;26.48;;;;;;;;;;4994548;28;20041;-86
2022/01/19 10:50:05;;;;;;;74.28;26.67;;;;;;;;;;5016980;28;20800;-86
2022/01/19 10:52:34;;;;;;;74.22;25.67;;;;;;;;;;5011810;28;20033;-86
2022/01/19 10:55:03;;;;;;;58.80;24.02;;;;;;;;;;5000697;28;20386;-86
2022/01/19 10:57:29;;;;;;;80.53;28.85;;;;;;;;;;5012847;28;20052;-86
2022/01/19 11:00:14;;;;;;;54.15;19.33;;;;;;;;;;4996347;28;20616;-86
2022/01/19 11:02:41;;;;;;;68.22;23.60;;;;;;;;;;5003792;28;20520;-86
2022/01/19 11:05:07;;;;;;;64.25;25.38;;;;;;;;;;4997058;28;20117;-86
2022/01/19 11:07:33;;;;;;;62.45;25.30;;;;;;;;;;4997258;28;20608;-86
2022/01/19 11:10:08;;;;;;;60.65;21.48;;;;;;;;;;5015736;28;20100;-85
2022/01/19 11:12:43;;;;;;;56.33;18.83;;;;;;;;;;4993621;28;20497;-86
2022/01/19 11:15:09;;;;;;;62.92;21.90;;;;;;;;;;5003487;28;20031;-86
2022/01/19 11:17:36;;;;;;;32.70;14.48;;;;;;;;;;5011176;28;20497;-85
2022/01/19 11:20:07;;;;;;;59.97;21.42;;;;;;;;;;4997868;28;20033;-86
2022/01/19 11:22:36;;;;;;;76.78;27.13;;;;;;;;;;5011539;28;20041;-86
2022/01/19 11:25:28;;;;;;;70.32;27.50;;;;;;;;;;5002261;28;20029;-93
2022/01/19 11:27:55;;;;;;;57.95;22.17;;;;;;;;;;4973481;28;20044;-85
2022/01/19 11:30:23;;;;;;;68.95;26.80;;;;;;;;;;4998281;28;20057;-87
2022/01/19 11:33:08;;;;;;;64.53;24.73;;;;;;;;;;5000244;28;20448;-85
2022/01/19 11:35:35;;;;;;;51.42;20.08;;;;;;;;;;4993477;28;20354;-87
2022/01/19 11:38:02;;;;;;;66.75;25.50;;;;;;;;;;4994893;28;20038;-86
2022/01/19 11:40:35;;;;;;;59.83;20.40;;;;;;;;;;5002145;28;20022;-86
2022/01/19 11:43:29;;;;;;;64.35;24.40;;;;;;;;;;5017175;28;20536;-86
2022/01/19 11:45:55;;;;;;;68.97;25.75;;;;;;;;;;4992720;28;20033;-86
2022/01/19 11:48:22;;;;;;;51.08;20.52;;;;;;;;;;5011415;28;20402;-86
2022/01/19 11:50:49;;;;;;;62.22;22.05;;;;;;;;;;5000514;28;20480;-85
2022/01/19 11:53:15;;;;;;;63.97;23.85;;;;;;;;;;4993211;28;20037;-85
2022/01/19 11:55:59;;;;;;;63.95;21.90;;;;;;;;;;5001136;28;20070;-85
2022/01/19 11:58:25;;;;;;;49.53;21.15;;;;;;;;;;5015206;28;20330;-86
2022/01/19 12:00:53;;;;;;;61.67;25.75;;;;;;;;;;4999919;28;20037;-85
2022/01/19 12:03:26;;;;;;;74.50;24.45;;;;;;;;;;5000764;28;20069;-85
2022/01/19 12:05:53;;;;;;;73.68;25.88;;;;;;;;;;5014326;28;20084;-86
2022/01/19 12:08:29;;;;;;;75.88;25.92;;;;;;;;;;4995736;28;20501;-86
2022/01/19 12:11:01;;;;;;;46.38;19.10;;;;;;;;;;4996065;28;20033;-88
2022/01/19 12:16:03;;;;;;;62.67;22.50;;;;;;;;;;5015263;28;20046;-87
2022/01/19 12:18:40;;;;;;;56.50;19.77;;;;;;;;;;5001030;28;20033;-88
2022/01/19 12:21:06;;;;;;;47.88;20.42;;;;;;;;;;4999797;28;20037;-89
2022/01/19 12:23:34;;;;;;;72.85;21.00;;;;;;;;;;4994587;28;20029;-85
2022/01/19 12:26:01;;;;;;;72.60;22.85;;;;;;;;;;5001608;28;20493;-85
2022/01/19 12:28:41;;;;;;;69.20;24.55;;;;;;;;;;5001867;28;20040;-85
2022/01/19 12:31:26;;;;;;;59.28;22.58;;;;;;;;;;4997633;28;20043;-85
2022/01/19 12:34:04;;;;;;;44.53;16.65;;;;;;;;;;4995055;28;20045;-85
2022/01/19 12:36:49;;;;;;;42.45;15.18;;;;;;;;;;4992839;28;20120;-85
2022/01/19 12:39:30;;;;;;;51.67;18.10;;;;;;;;;;4998015;28;20120;-87
2022/01/19 12:41:59;;;;;;;66.07;22.38;;;;;;;;;;4996518;28;20037;-85
2022/01/19 12:44:35;;;;;;;63.72;17.55;;;;;;;;;;5001276;28;20533;-84
2022/01/19 12:47:01;;;;;;;47.35;18.15;;;;;;;;;;4995643;28;20038;-85
2022/01/19 12:49:28;;;;;;;58.92;23.70;;;;;;;;;;4990937;28;20088;-86
2022/01/19 12:51:54;;;;;;;45.38;18.50;;;;;;;;;;5003222;28;20548;-86
2022/01/19 12:54:25;;;;;;;50.83;16.48;;;;;;;;;;4996566;28;20042;-86
2022/01/19 12:56:56;;;;;;;55.10;18.77;;;;;;;;;;4984932;28;20060;-91
2022/01/19 12:59:22;;;;;;;48.85;15.60;;;;;;;;;;4980663;28;20482;-88
2022/01/19 13:01:48;;;;;;;39.78;17.00;;;;;;;;;;4988091;28;20042;-88
2022/01/19 13:04:24;;;;;;;49.55;17.73;;;;;;;;;;4976690;28;20041;-86
2022/01/19 13:06:53;;;;;;;45.22;16.13;;;;;;;;;;5009589;28;20028;-86
2022/01/19 13:09:27;;;;;;;56.90;20.42;;;;;;;;;;4997631;28;20033;-86
2022/01/19 13:11:55;;;;;;;50.65;19.17;;;;;;;;;;4999930;28;20030;-87
2022/01/19 13:14:23;;;;;;;64.90;21.63;;;;;;;;;;4999436;28;20116;-86
2022/01/19 13:16:52;;;;;;;56.45;21.80;;;;;;;;;;4983703;28;20046;-85
2022/01/19 13:19:22;;;;;;;44.65;11.55;;;;;;;;;;4986359;28;20540;-86
2022/01/19 13:22:07;;;;;;;57.92;23.58;;;;;;;;;;4991290;28;20038;-86
2022/01/19 13:24:36;;;;;;;37.28;15.15;;;;;;;;;;4995522;28;20033;-86
2022/01/19 13:27:04;;;;;;;58.97;21.60;;;;;;;;;;4980590;28;20057;-86
2022/01/19 13:29:39;;;;;;;49.10;16.30;;;;;;;;;;4994797;28;20621;-89
2022/01/19 13:32:07;;;;;;;45.10;15.00;;;;;;;;;;5019820;28;20029;-87
2022/01/19 13:34:35;;;;;;;36.83;13.80;;;;;;;;;;5014047;28;20611;-86
2022/01/19 13:37:02;;;;;;;48.00;16.23;;;;;;;;;;5002337;28;20499;-87
2022/01/19 13:39:30;;;;;;;43.70;18.05;;;;;;;;;;5000117;28;20859;-87
2022/01/19 13:42:03;;;;;;;50.40;17.00;;;;;;;;;;5015096;28;20037;-87
2022/01/19 13:44:36;;;;;;;40.30;15.23;;;;;;;;;;4996686;28;20627;-86
2022/01/19 13:47:03;;;;;;;73.93;17.48;;;;;;;;;;5003228;28;20367;-86
2022/01/19 13:49:30;;;;;;;44.47;16.85;;;;;;;;;;4998550;28;20026;-87
2022/01/19 13:51:56;;;;;;;69.18;22.13;;;;;;;;;;5003739;28;20033;-88
2022/01/19 13:54:22;;;;;;;29.33;12.27;;;;;;;;;;5003470;28;20051;-88
2022/01/19 13:56:55;;;;;;;32.63;13.13;;;;;;;;;;5020721;28;20034;-87
2022/01/19 13:59:24;;;;;;;62.55;21.33;;;;;;;;;;5016808;28;20069;-87
2022/01/19 14:02:01;;;;;;;50.47;16.73;;;;;;;;;;5000450;28;20107;-87
2022/01/19 14:04:29;;;;;;;43.75;15.77;;;;;;;;;;5002761;28;20026;-87
2022/01/19 14:07:04;;;;;;;55.65;20.42;;;;;;;;;;5000828;28;20079;-87
2022/01/19 14:09:36;;;;;;;52.47;14.77;;;;;;;;;;5002106;28;20516;-87
2022/01/19 14:12:11;;;;;;;64.10;22.48;;;;;;;;;;5004088;28;20550;-88
2022/01/19 14:14:42;;;;;;;59.00;17.52;;;;;;;;;;4999691;28;20124;-86
2022/01/19 14:17:10;;;;;;;41.78;14.50;;;;;;;;;;4989156;28;20045;-87
2022/01/19 14:19:46;;;;;;;46.33;17.25;;;;;;;;;;4999817;28;20064;-87
2022/01/19 14:22:21;;;;;;;53.45;15.13;;;;;;;;;;5020115;28;20477;-87
2022/01/19 14:24:47;;;;;;;28.67;10.37;;;;;;;;;;4997706;28;20598;-87
2022/01/19 14:27:35;;;;;;;46.55;16.05;;;;;;;;;;4999156;28;20529;-88
2022/01/19 14:30:11;;;;;;;34.00;12.63;;;;;;;;;;5023197;28;20043;-87
2022/01/19 14:32:37;;;;;;;42.10;14.07;;;;;;;;;;5002179;28;20438;-86
2022/01/19 14:35:20;;;;;;;54.63;15.90;;;;;;;;;;5004436;28;20025;-87
2022/01/19 14:38:01;;;;;;;26.05;8.75;;;;;;;;;;5011456;28;20041;-88
2022/01/19 14:40:27;;;;;;;41.40;13.98;;;;;;;;;;5001693;28;20564;-88
2022/01/19 14:42:53;;;;;;;46.40;14.50;;;;;;;;;;5015951;28;20104;-88
2022/01/19 14:45:24;;;;;;;48.35;16.77;;;;;;;;;;5010756;28;20465;-86
2022/01/19 14:47:52;;;;;;;49.20;16.30;;;;;;;;;;5016700;28;20041;-87
2022/01/19 14:50:18;;;;;;;42.03;13.48;;;;;;;;;;5004044;28;20034;-87
2022/01/19 14:52:44;;;;;;;27.20;10.90;;;;;;;;;;4998335;28;20029;-88
2022/01/19 14:55:10;;;;;;;46.78;15.25;;;;;;;;;;5010660;28;20049;-88
2022/01/19 14:57:41;;;;;;;25.45;10.35;;;;;;;;;;4997870;28;20056;-86
2022/01/19 15:00:12;;;;;;;21.17;8.88;;;;;;;;;;5007462;28;20037;-94
2022/01/19 15:02:39;;;;;;;27.75;9.20;;;;;;;;;;5022545;28;20485;-88
2022/01/19 15:05:05;;;;;;;37.92;11.32;;;;;;;;;;5002433;28;20562;-89
2022/01/19 15:07:31;;;;;;;39.70;14.30;;;;;;;;;;4992228;28;20425;-89
2022/01/19 15:10:02;;;;;;;29.30;9.20;;;;;;;;;;5007708;28;20204;-89
2022/01/19 15:12:28;;;;;;;30.92;10.30;;;;;;;;;;4992691;28;20508;-88
2022/01/19 15:14:55;;;;;;;45.33;9.65;;;;;;;;;;4996143;28;20392;-88
2022/01/19 15:17:21;;;;;;;33.30;10.13;;;;;;;;;;4999843;28;21520;-85
2022/01/19 15:19:57;;;;;;;23.63;7.45;;;;;;;;;;4998447;28;20065;-86
2022/01/19 15:22:30;;;;;;;15.65;6.45;;;;;;;;;;5000896;28;20505;-86
2022/01/19 15:24:56;;;;;;;36.72;10.90;;;;;;;;;;5007565;28;20053;-85
2022/01/19 15:27:45;;;;;;;31.35;9.07;;;;;;;;;;5007222;28;20050;-90
2022/01/19 15:30:37;;;;;;;25.85;10.40;;;;;;;;;;5013209;28;20382;-88
2022/01/19 15:33:06;;;;;;;24.30;10.40;;;;;;;;;;5001899;28;20553;-88
2022/01/19 15:35:37;;;;;;;27.40;10.05;;;;;;;;;;5005235;28;20029;-86
2022/01/19 15:38:03;;;;;;;21.50;7.78;;;;;;;;;;5004251;28;20030;-90
2022/01/19 15:40:42;;;;;;;19.73;5.85;;;;;;;;;;5003380;28;20033;-92
2022/01/19 15:43:34;;;;;;;35.42;9.82;;;;;;;;;;5016813;28;20034;-95
2022/01/19 15:46:04;;;;;;;17.52;6.05;;;;;;;;;;5017727;28;20045;-93
2022/01/19 15:48:34;;;;;;;30.30;11.13;;;;;;;;;;5010431;28;20029;-92
2022/01/19 15:51:03;;;;;;;20.50;8.80;;;;;;;;;;5006088;28;20489;-86
2022/01/19 15:53:31;;;;;;;23.70;8.45;;;;;;;;;;4990786;28;20041;-88
2022/01/19 15:56:02;;;;;;;30.35;9.48;;;;;;;;;;4994771;28;20033;-87
2022/01/19 15:58:28;;;;;;;29.73;9.82;;;;;;;;;;5013933;28;20037;-87